Baldwin, Colorado
Current Conditions -  °F | °C
As of 7:55 AM on Wednesday 22 Oct 2014 (Local Time) from KGUC Reporting Station
Overcast Overcast  
Wind Chill: 36°   Ceiling: 1000
Heat Index: 39°   Visibility: 4mi
Dew Point: 36°   Wind: 5mph
Humidity: 87%   Direction: 130°SE
Pressure: 30.28"   Gusts: NA
Location:  38.5539°N, 107.09°W
Report Text: KGUC 221355Z AUTO 13004KT 4SM BKN010 BKN015 OVC033 04/02 A3028 RMK AO1 P0001
Loading
Personal Weather Stations






























Interactive Weather Map
Tropical Storm Tracking
New forecast layout! Learn more

10-Day Weather Forecast

Advertisements
Track Severe Weather on mobile